Time;durP1;ratioP1;P1;durP2;ratioP2;P2;SDS_P1;SDS_P2;PMS_P1;PMS_P2;Temp;Humidity;BMP_temperature;BMP_pressure;BME280_temperature;BME280_humidity;BME280_pressure;Samples;Min_cycle;Max_cycle;Signal;HPM_P1;HPM_P2
2021/03/19 00:00:53;;;;;;;2.70;1.79;;;;;;;4.04;71.37;99378.75;2016639;80;20446;-70
2021/03/19 00:03:55;;;;;;;2.38;1.74;;;;;;;4.06;71.50;99376.22;2015878;80;20856;-69
2021/03/19 00:06:57;;;;;;;3.81;1.70;;;;;;;4.04;71.92;99380.44;2016999;80;20927;-69
2021/03/19 00:09:59;;;;;;;3.72;2.11;;;;;;;4.01;71.92;99370.13;2017410;80;20346;-70
2021/03/19 00:13:04;;;;;;;2.61;1.71;;;;;;;3.99;72.60;99369.22;2016416;80;20829;-70
2021/03/19 00:16:07;;;;;;;2.80;1.76;;;;;;;3.97;72.72;99368.31;2017128;80;20329;-69
2021/03/19 00:19:09;;;;;;;3.40;1.60;;;;;;;3.95;73.25;99363.16;2017285;80;20348;-70
2021/03/19 00:22:11;;;;;;;1.73;1.50;;;;;;;3.89;73.49;99363.00;2016569;80;20329;-70
2021/03/19 00:25:14;;;;;;;1.90;1.73;;;;;;;3.86;73.79;99368.09;2016989;80;20317;-70
2021/03/19 00:28:15;;;;;;;1.96;1.35;;;;;;;3.85;74.36;99359.50;2016357;80;20330;-70
2021/03/19 00:31:17;;;;;;;4.94;2.09;;;;;;;3.85;74.50;99359.50;2016973;80;20309;-69
2021/03/19 00:34:19;;;;;;;2.49;1.75;;;;;;;3.80;75.07;99361.13;2058958;70;20945;-70
2021/03/19 00:37:21;;;;;;;2.51;1.75;;;;;;;3.79;75.07;99355.94;2012389;80;20919;-70
2021/03/19 00:40:24;;;;;;;2.21;1.60;;;;;;;3.77;75.29;99355.91;2012555;80;20322;-70
2021/03/19 00:43:26;;;;;;;4.54;1.54;;;;;;;3.73;75.69;99351.53;2011591;80;20315;-70
2021/03/19 00:46:27;;;;;;;2.00;1.66;;;;;;;3.74;75.66;99353.25;2011767;80;20306;-70
2021/03/19 00:49:29;;;;;;;3.66;1.85;;;;;;;3.74;75.99;99357.53;2012080;80;20323;-70
2021/03/19 00:52:31;;;;;;;3.13;1.79;;;;;;;3.75;75.69;99349.84;2012652;80;20756;-70
2021/03/19 00:55:33;;;;;;;2.29;1.67;;;;;;;3.76;75.72;99343.03;2011703;80;20368;-70
2021/03/19 00:58:35;;;;;;;2.63;1.50;;;;;;;3.72;75.83;99347.22;2012245;80;20328;-70
2021/03/19 01:01:37;;;;;;;3.49;2.16;;;;;;;3.68;76.11;99342.00;2011749;80;20306;-70
2021/03/19 01:04:39;;;;;;;3.67;2.16;;;;;;;3.68;76.14;99342.00;2011486;80;20334;-70
2021/03/19 01:07:40;;;;;;;3.19;1.80;;;;;;;3.66;76.26;99341.97;2012592;80;20326;-69
2021/03/19 01:10:50;;;;;;;2.20;1.61;;;;;;;3.67;76.72;99353.09;2010979;80;20488;-68
2021/03/19 01:13:52;;;;;;;4.46;1.80;;;;;;;3.65;77.11;99347.94;2011777;80;20334;-68
2021/03/19 01:16:54;;;;;;;4.99;1.76;;;;;;;3.67;77.08;99345.41;2011475;80;20330;-68
2021/03/19 01:19:55;;;;;;;3.85;1.76;;;;;;;3.64;77.64;99343.63;2011434;80;21095;-68
2021/03/19 01:22:58;;;;;;;3.42;2.03;;;;;;;3.60;78.31;99339.28;2012042;80;20330;-68
2021/03/19 01:25:59;;;;;;;1.98;1.79;;;;;;;3.60;78.54;99331.56;2011046;80;20348;-68
2021/03/19 01:29:03;;;;;;;4.65;1.60;;;;;;;3.54;78.86;99328.84;2011743;80;20365;-68
2021/03/19 01:32:04;;;;;;;5.04;1.88;;;;;;;3.53;79.27;99329.69;2011367;80;20314;-68
2021/03/19 01:35:07;;;;;;;4.75;2.22;;;;;;;3.53;79.50;99333.13;2011466;80;20339;-68
2021/03/19 01:38:10;;;;;;;3.91;2.16;;;;;;;3.50;79.71;99324.47;2011640;80;20747;-68
2021/03/19 01:41:11;;;;;;;2.67;2.11;;;;;;;3.49;80.02;99326.19;2011866;80;20346;-68
2021/03/19 01:44:18;;;;;;;4.05;2.08;;;;;;;3.50;79.96;99322.78;2010980;80;20330;-68
2021/03/19 01:47:57;;;;;;;4.13;2.59;;;;;;;3.49;79.79;99315.91;2011821;80;20851;-70
2021/03/19 01:51:18;;;;;;;;;;;;;;;3.45;80.44;99326.94;2011534;80;20436;-68
2021/03/19 01:54:57;;;;;;;3.79;2.10;;;;;;;3.42;81.00;99315.75;2011059;80;20081;-69
2021/03/19 01:58:36;;;;;;;3.05;2.06;;;;;;;3.40;81.35;99315.69;2011265;80;20447;-68
2021/03/19 02:02:15;;;;;;;3.64;2.36;;;;;;;3.38;81.69;99319.94;2012066;80;20224;-70
2021/03/19 02:05:55;;;;;;;2.75;2.09;;;;;;;3.38;81.72;99319.06;2011291;80;20181;-70
2021/03/19 02:09:34;;;;;;;2.99;2.16;;;;;;;3.32;81.98;99314.66;2011868;80;20314;-71
2021/03/19 02:13:13;;;;;;;2.90;2.60;;;;;;;3.31;82.18;99318.06;2012058;80;20276;-71
2021/03/19 02:16:52;;;;;;;5.05;2.92;;;;;;;3.31;82.56;99313.81;2011814;80;20178;-71
2021/03/19 02:20:32;;;;;;;4.00;2.25;;;;;;;3.34;82.39;99311.31;2011409;80;20995;-70
2021/03/19 02:24:11;;;;;;;4.78;3.35;;;;;;;3.33;81.99;99309.56;2011075;80;20188;-70
2021/03/19 02:27:50;;;;;;;2.69;2.34;;;;;;;3.30;81.63;99306.06;2011217;80;20740;-70
2021/03/19 02:31:11;;;;;;;3.94;2.55;;;;;;;3.25;81.58;99305.09;2011726;80;20219;-70
2021/03/19 02:34:13;;;;;;;3.26;2.00;;;;;;;3.19;81.60;99300.69;2011351;80;20314;-71
2021/03/19 02:37:18;;;;;;;4.88;2.50;;;;;;;3.13;81.17;99305.69;2011328;80;20395;-71
2021/03/19 02:40:24;;;;;;;3.19;2.14;;;;;;;3.04;80.82;99305.44;2011989;80;20916;-71
2021/03/19 02:43:26;;;;;;;3.88;2.11;;;;;;;2.94;80.56;99304.38;2011752;80;20971;-71
2021/03/19 02:46:28;;;;;;;2.67;2.25;;;;;;;2.77;80.59;99307.34;2011436;80;21145;-71
2021/03/19 02:49:31;;;;;;;3.17;1.95;;;;;;;2.66;80.90;99307.94;2011342;80;20919;-72
2021/03/19 02:52:49;;;;;;;;;;;;;;;2.50;80.99;99317.72;2012032;80;20420;-71
2021/03/19 02:55:51;;;;;;;3.78;2.04;;;;;;;2.40;81.31;99319.19;2011137;80;20082;-72
2021/03/19 02:58:53;;;;;;;3.46;2.06;;;;;;;2.30;81.85;99310.38;2011192;80;20164;-71
2021/03/19 03:01:55;;;;;;;2.45;1.67;;;;;;;2.19;81.73;99316.94;2011809;80;20343;-71
2021/03/19 03:04:57;;;;;;;2.76;1.75;;;;;;;2.11;82.01;99320.97;2012171;80;20359;-72
2021/03/19 03:08:00;;;;;;;2.00;1.77;;;;;;;2.05;82.21;99321.66;2012667;80;20351;-71
2021/03/19 03:11:03;;;;;;;2.14;1.92;;;;;;;1.97;82.22;99322.25;2012939;80;20372;-69
2021/03/19 03:14:11;;;;;;;3.04;1.99;;;;;;;1.87;82.48;99322.84;2012825;80;20314;-69
2021/03/19 03:17:13;;;;;;;2.55;2.05;;;;;;;1.80;82.72;99319.25;2012619;80;20353;-70
2021/03/19 03:20:21;;;;;;;2.47;1.94;;;;;;;1.73;82.89;99323.28;2013133;80;20788;-69
2021/03/19 03:23:25;;;;;;;2.34;2.03;;;;;;;1.66;83.15;99328.19;2012377;80;20376;-70
2021/03/19 03:26:29;;;;;;;2.71;1.70;;;;;;;1.60;83.27;99331.41;2013464;80;20901;-69
2021/03/19 03:29:31;;;;;;;2.71;2.17;;;;;;;1.53;83.54;99326.94;2012794;80;20322;-69
2021/03/19 03:32:33;;;;;;;2.31;2.11;;;;;;;1.45;83.73;99330.97;2012834;80;20310;-69
2021/03/19 03:35:36;;;;;;;2.19;1.86;;;;;;;1.41;84.15;99332.53;2012612;80;20366;-70
2021/03/19 03:38:38;;;;;;;2.49;2.28;;;;;;;1.36;84.30;99326.44;2012612;80;20314;-70
2021/03/19 03:41:41;;;;;;;2.40;2.20;;;;;;;1.32;84.61;99332.28;2012713;80;20375;-70
2021/03/19 03:44:43;;;;;;;2.31;2.11;;;;;;;1.36;85.10;99325.56;2012147;80;20399;-70
2021/03/19 03:47:45;;;;;;;2.47;2.25;;;;;;;1.45;85.12;99328.41;2012610;80;20403;-70
2021/03/19 03:50:47;;;;;;;3.04;2.50;;;;;;;1.45;85.09;99328.41;2012149;80;20875;-70
2021/03/19 03:53:49;;;;;;;3.22;2.63;;;;;;;1.42;85.05;99325.75;2012736;80;21128;-71
2021/03/19 03:56:50;;;;;;;2.50;2.30;;;;;;;1.44;85.26;99330.09;2012256;80;20334;-69
2021/03/19 03:59:52;;;;;;;3.67;2.54;;;;;;;1.52;85.19;99328.63;2012278;80;20345;-70
2021/03/19 04:02:54;;;;;;;2.34;2.14;;;;;;;1.51;84.77;99321.78;2012122;80;20349;-70
2021/03/19 04:05:56;;;;;;;3.11;2.81;;;;;;;1.48;84.80;99323.38;2011510;80;20453;-70
2021/03/19 04:08:58;;;;;;;3.84;2.66;;;;;;;1.50;85.04;99324.31;2012688;80;20348;-70
2021/03/19 04:11:59;;;;;;;3.24;2.71;;;;;;;1.56;85.01;99327.03;2011766;80;20355;-70
2021/03/19 04:15:03;;;;;;;3.11;2.76;;;;;;;1.55;85.00;99330.41;2012075;80;20403;-70
2021/03/19 04:18:08;;;;;;;3.03;2.64;;;;;;;1.53;84.95;99332.06;2012777;80;20330;-70
2021/03/19 04:21:11;;;;;;;2.88;2.16;;;;;;;1.50;85.01;99327.72;2011822;80;20318;-70
2021/03/19 04:24:12;;;;;;;3.92;2.74;;;;;;;1.49;84.96;99331.09;2012350;80;20375;-70
2021/03/19 04:27:17;;;;;;;2.89;2.66;;;;;;;1.46;85.03;99332.72;2011697;80;20340;-70
2021/03/19 04:30:41;;;;;;;3.66;2.42;;;;;;;1.45;85.32;99330.97;2012049;80;20333;-70
2021/03/19 04:33:43;;;;;;;2.95;2.56;;;;;;;1.43;85.42;99332.59;2011531;80;20380;-70
2021/03/19 04:36:48;;;;;;;2.61;2.41;;;;;;;1.45;85.73;99336.09;2011443;80;20314;-70
2021/03/19 04:39:50;;;;;;;2.97;2.63;;;;;;;1.47;85.64;99337.00;2011662;80;20733;-70
2021/03/19 04:42:54;;;;;;;3.34;2.45;;;;;;;1.49;85.69;99338.78;2012411;80;20346;-70
2021/03/19 04:45:55;;;;;;;3.19;2.89;;;;;;;1.50;85.79;99335.41;2012039;80;20334;-70
2021/03/19 04:48:57;;;;;;;3.03;2.72;;;;;;;1.50;85.87;99335.41;2012039;80;20505;-69
2021/03/19 04:51:59;;;;;;;2.94;2.64;;;;;;;1.46;85.64;99342.94;2012084;80;20311;-69
2021/03/19 04:55:03;;;;;;;3.34;3.04;;;;;;;1.42;85.69;99353.88;2011746;80;20322;-70
2021/03/19 04:58:05;;;;;;;2.89;2.55;;;;;;;1.42;86.01;99361.56;2012305;80;21035;-70
2021/03/19 05:01:06;;;;;;;3.51;2.41;;;;;;;1.43;86.21;99360.72;2011545;80;20820;-70
2021/03/19 05:04:08;;;;;;;3.17;2.63;;;;;;;1.48;86.26;99361.75;2012271;80;20356;-69
2021/03/19 05:07:09;;;;;;;3.16;2.86;;;;;;;1.48;86.13;99362.63;2011849;80;20967;-70
2021/03/19 05:10:16;;;;;;;3.28;2.72;;;;;;;1.47;86.00;99372.81;2012248;80;20334;-69
2021/03/19 05:13:18;;;;;;;3.63;3.08;;;;;;;1.46;86.14;99377.06;2012199;80;20378;-69
2021/03/19 05:16:19;;;;;;;4.46;3.54;;;;;;;1.46;86.47;99374.50;2011189;80;20877;-69
2021/03/19 05:19:21;;;;;;;3.56;3.26;;;;;;;1.56;86.76;99377.34;2011194;80;20415;-70
2021/03/19 05:22:24;;;;;;;4.26;3.89;;;;;;;1.62;86.57;99380.97;2011482;80;20364;-69
2021/03/19 05:25:29;;;;;;;4.31;3.79;;;;;;;1.69;86.38;99385.44;2012229;80;20751;-70
2021/03/19 05:28:31;;;;;;;6.53;3.80;;;;;;;1.73;86.15;99383.84;2011163;80;21114;-70
2021/03/19 05:31:33;;;;;;;4.44;3.95;;;;;;;1.74;85.99;99388.13;2011804;80;21392;-69
2021/03/19 05:34:37;;;;;;;4.04;3.56;;;;;;;1.72;85.93;99393.22;2012054;80;20345;-69
2021/03/19 05:37:39;;;;;;;3.99;3.66;;;;;;;1.76;85.98;99399.28;2011637;80;20334;-69
2021/03/19 05:40:48;;;;;;;4.16;3.79;;;;;;;1.80;85.97;99394.34;2011743;80;20455;-69
2021/03/19 05:43:53;;;;;;;4.60;4.15;;;;;;;1.84;86.08;99394.41;2010955;80;20342;-69
2021/03/19 05:47:03;;;;;;;4.10;3.69;;;;;;;1.81;86.21;99405.44;2011984;80;20621;-69
2021/03/19 05:50:07;;;;;;;4.43;4.01;;;;;;;1.80;85.89;99403.72;2011519;80;20314;-69
2021/03/19 05:53:14;;;;;;;4.94;4.06;;;;;;;1.80;85.73;99403.72;2011101;80;20373;-69
2021/03/19 05:56:17;;;;;;;5.39;4.09;;;;;;;1.79;85.82;99405.38;2011635;80;20322;-69
2021/03/19 05:59:19;;;;;;;5.16;4.11;;;;;;;1.82;85.97;99409.75;2011856;80;20321;-69
2021/03/19 06:02:32;;;;;;;5.88;4.39;;;;;;;1.86;86.00;99413.25;2010840;80;20334;-75
2021/03/19 06:05:55;;;;;;;4.85;4.26;;;;;;;1.87;85.94;99418.41;2011777;80;20407;-75
2021/03/19 06:08:57;;;;;;;4.71;3.75;;;;;;;1.92;85.88;99410.88;2012325;80;20798;-75
2021/03/19 06:12:06;;;;;;;4.51;3.94;;;;;;;1.91;85.81;99415.13;2011815;80;20310;-75
2021/03/19 06:15:27;;;;;;;5.76;4.47;;;;;;;1.92;85.95;99427.09;2011721;80;20349;-75
2021/03/19 06:18:44;;;;;;;4.60;3.55;;;;;;;1.94;85.91;99427.16;2011257;80;20306;-75
2021/03/19 06:21:46;;;;;;;4.75;3.86;;;;;;;2.00;86.01;99430.78;2011699;80;20340;-76
2021/03/19 06:24:59;;;;;;;4.16;3.74;;;;;;;2.03;86.06;99435.13;2011579;80;20322;-76
2021/03/19 06:28:04;;;;;;;4.40;3.84;;;;;;;2.09;86.06;99437.84;2010857;80;21016;-75
2021/03/19 06:31:29;;;;;;;4.20;3.80;;;;;;;2.12;85.96;99455.88;2011569;80;20306;-75
2021/03/19 06:34:32;;;;;;;5.03;3.81;;;;;;;2.19;86.12;99449.25;2011129;80;20334;-75
2021/03/19 06:37:39;;;;;;;3.94;3.33;;;;;;;2.24;86.05;99447.69;2011276;80;20854;-75
2021/03/19 06:40:41;;;;;;;3.38;3.16;;;;;;;2.32;85.99;99457.31;2011729;80;20830;-75
2021/03/19 06:43:43;;;;;;;4.15;2.86;;;;;;;2.37;85.74;99466.03;2010942;80;20579;-75
2021/03/19 06:46:59;;;;;;;3.81;3.33;;;;;;;2.44;85.31;99459.38;2011379;80;20361;-75
2021/03/19 06:50:02;;;;;;;4.24;3.84;;;;;;;2.48;85.12;99460.34;2010983;80;20870;-76
2021/03/19 06:53:28;;;;;;;3.88;3.53;;;;;;;2.51;84.91;99468.09;2011509;80;21064;-75
2021/03/19 06:56:31;;;;;;;4.69;3.42;;;;;;;2.62;84.85;99459.91;2010773;80;20347;-74
2021/03/19 07:00:01;;;;;;;6.14;4.16;;;;;;;2.76;84.56;99470.56;2011549;80;20349;-77
2021/03/19 07:03:40;;;;;;;3.83;3.45;;;;;;;2.88;84.26;99468.34;2010768;80;20326;-78
2021/03/19 07:07:20;;;;;;;3.84;3.49;;;;;;;2.99;84.02;99477.16;2014600;80;20314;-77
2021/03/19 07:10:53;;;;;;;3.83;3.39;;;;;;;3.08;83.58;99476.56;2011731;80;20553;-72
2021/03/19 07:14:30;;;;;;;3.99;3.42;;;;;;;3.08;82.72;99475.69;2011370;80;20260;-72
2021/03/19 07:17:44;;;;;;;3.72;3.42;;;;;;;3.08;82.58;99484.25;2011584;80;20339;-72
2021/03/19 07:21:08;;;;;;;3.79;3.49;;;;;;;3.10;82.64;99490.28;2011164;80;20559;-72
2021/03/19 07:24:28;;;;;;;3.71;3.41;;;;;;;3.10;82.50;99482.59;2011406;80;20381;-71
2021/03/19 07:27:33;;;;;;;3.40;3.10;;;;;;;3.14;82.50;99491.25;2010859;80;20330;-72
2021/03/19 07:31:01;;;;;;;3.84;3.54;;;;;;;3.16;82.58;99485.31;2011381;80;20326;-70
2021/03/19 07:34:09;;;;;;;4.54;3.25;;;;;;;3.21;82.84;99483.72;2011990;80;20382;-70
2021/03/19 07:37:23;;;;;;;3.78;3.47;;;;;;;3.31;82.98;99495.97;2011222;80;20453;-72
2021/03/19 07:40:45;;;;;;;3.66;3.30;;;;;;;3.43;83.01;99499.72;2011991;80;20438;-71
2021/03/19 07:44:12;;;;;;;3.65;3.35;;;;;;;3.54;82.77;99503.41;2012115;80;20319;-71
2021/03/19 07:47:27;;;;;;;4.05;3.58;;;;;;;3.69;82.55;99502.91;2012671;80;20375;-71
2021/03/19 07:50:38;;;;;;;4.14;3.74;;;;;;;3.76;82.07;99507.38;2012345;80;20920;-71
2021/03/19 07:53:43;;;;;;;4.19;3.79;;;;;;;3.79;81.56;99513.47;2012077;80;20819;-69
2021/03/19 07:57:09;;;;;;;4.28;3.88;;;;;;;3.76;81.09;99515.94;2014864;80;20310;-71
2021/03/19 08:00:15;;;;;;;3.80;3.50;;;;;;;3.75;81.09;99519.34;2012778;80;20944;-71
2021/03/19 08:03:27;;;;;;;4.36;3.75;;;;;;;3.76;81.29;99523.63;2011601;80;20365;-70
2021/03/19 08:06:36;;;;;;;5.05;3.63;;;;;;;3.78;80.87;99529.72;2012081;80;20355;-71
2021/03/19 08:10:01;;;;;;;4.41;4.05;;;;;;;3.74;79.90;99535.56;2012146;80;20346;-70
2021/03/19 08:13:24;;;;;;;4.94;4.44;;;;;;;3.80;79.79;99530.63;2007730;80;20184;-70
2021/03/19 08:16:40;;;;;;;4.47;4.05;;;;;;;3.92;79.45;99536.03;2012099;80;20763;-69
2021/03/19 08:19:59;;;;;;;4.82;4.35;;;;;;;4.05;78.60;99546.59;2011915;80;20322;-70
2021/03/19 08:23:24;;;;;;;5.01;4.51;;;;;;;4.12;77.64;99544.22;2012328;80;20314;-69
2021/03/19 08:26:44;;;;;;;5.13;4.63;;;;;;;4.17;77.37;99546.91;2009891;80;20208;-70
2021/03/19 08:29:51;;;;;;;6.44;5.36;;;;;;;4.20;77.06;99552.13;2010282;80;20465;-70
2021/03/19 08:33:06;;;;;;;6.36;4.74;;;;;;;4.19;75.83;99558.09;2010968;80;20799;-70
2021/03/19 08:36:23;;;;;;;5.05;4.59;;;;;;;4.22;76.14;99556.47;2009830;80;20345;-69
2021/03/19 08:39:45;;;;;;;4.90;4.40;;;;;;;4.25;75.73;99561.66;2010039;80;20835;-69
2021/03/19 08:42:50;;;;;;;5.44;4.81;;;;;;;4.32;75.77;99557.56;2009771;80;20374;-69
2021/03/19 08:46:10;;;;;;;5.64;4.80;;;;;;;4.40;76.10;99568.88;2010112;80;20337;-69
2021/03/19 08:49:34;;;;;;;6.60;5.16;;;;;;;4.30;75.07;99574.59;2009787;80;20334;-70
2021/03/19 08:52:38;;;;;;;6.70;4.89;;;;;;;4.18;75.16;99582.06;2010243;80;20349;-69
2021/03/19 08:56:10;;;;;;;6.19;5.11;;;;;;;3.92;74.26;99587.41;2009264;80;20370;-69
2021/03/19 08:59:34;;;;;;;6.57;5.01;;;;;;;3.84;74.76;99588.06;2013638;80;20334;-69
2021/03/19 09:02:46;;;;;;;6.94;5.19;;;;;;;3.82;75.24;99600.00;2010129;80;20928;-70
2021/03/19 09:06:04;;;;;;;5.39;4.78;;;;;;;3.80;75.34;99609.34;2009407;80;20735;-70
2021/03/19 09:09:35;;;;;;;6.70;4.29;;;;;;;3.83;75.10;99620.56;2010198;80;20425;-70
2021/03/19 09:12:55;;;;;;;5.82;4.50;;;;;;;3.88;74.46;99611.28;2009495;80;20366;-70
2021/03/19 09:16:39;;;;;;;4.72;3.92;;;;;;;3.91;74.47;99619.06;2010494;80;20322;-70
2021/03/19 09:19:55;;;;;;;6.05;4.40;;;;;;;3.94;74.11;99618.25;2010531;80;20866;-70
2021/03/19 09:23:12;;;;;;;6.66;4.46;;;;;;;3.95;72.75;99622.59;2009076;80;20838;-70
2021/03/19 09:26:43;;;;;;;4.66;4.14;;;;;;;4.00;71.49;99633.84;2009751;80;20511;-69
2021/03/19 09:29:45;;;;;;;5.25;3.94;;;;;;;4.02;71.22;99636.47;2008154;80;20368;-70
2021/03/19 09:32:50;;;;;;;5.71;4.13;;;;;;;4.11;71.50;99634.09;2010757;80;20845;-70
2021/03/19 09:35:52;;;;;;;5.44;3.92;;;;;;;4.24;71.50;99634.44;2009960;80;20892;-69
2021/03/19 09:38:54;;;;;;;5.60;3.76;;;;;;;4.35;71.19;99649.28;2009593;80;20373;-69
2021/03/19 09:41:55;;;;;;;4.40;3.89;;;;;;;4.34;69.78;99647.53;2010408;80;20470;-69
2021/03/19 09:45:03;;;;;;;5.84;3.89;;;;;;;4.37;69.61;99650.19;2010526;80;20365;-69
2021/03/19 09:48:24;;;;;;;4.93;3.58;;;;;;;4.45;70.08;99641.81;2010434;80;20819;-69
2021/03/19 09:51:34;;;;;;;5.19;3.70;;;;;;;4.53;70.20;99642.88;2011471;80;20763;-69
2021/03/19 09:54:37;;;;;;;4.61;3.55;;;;;;;4.70;69.48;99671.56;2009709;80;20223;-69
2021/03/19 09:57:42;;;;;;;4.72;3.46;;;;;;;4.76;68.46;99658.84;2010622;80;20334;-69
2021/03/19 10:00:52;;;;;;;3.31;3.01;;;;;;;4.85;67.18;99664.22;2010361;80;20357;-69
2021/03/19 10:04:02;;;;;;;5.24;3.51;;;;;;;4.72;65.39;99661.31;2009530;80;20379;-69
2021/03/19 10:07:23;;;;;;;4.84;3.44;;;;;;;4.68;66.54;99657.81;2009895;80;20349;-69
2021/03/19 10:10:33;;;;;;;3.81;2.78;;;;;;;4.61;66.67;99670.47;2008349;80;20911;-69
2021/03/19 10:13:35;;;;;;;3.08;2.72;;;;;;;4.46;65.60;99670.97;2009669;80;20362;-69
2021/03/19 10:16:37;;;;;;;3.69;3.06;;;;;;;4.49;66.31;99674.50;2009961;80;21102;-69
2021/03/19 10:19:43;;;;;;;3.75;2.90;;;;;;;4.53;66.28;99662.59;2010051;80;21090;-69
2021/03/19 10:22:49;;;;;;;3.33;2.88;;;;;;;4.54;65.41;99680.63;2009970;80;20926;-69
2021/03/19 10:25:51;;;;;;;5.91;3.88;;;;;;;4.50;64.44;99683.94;2009502;80;20353;-69
2021/03/19 10:29:06;;;;;;;3.10;2.61;;;;;;;4.44;63.42;99688.94;2009688;80;20314;-69
2021/03/19 10:32:18;;;;;;;5.81;2.88;;;;;;;4.44;64.05;99678.63;2010493;80;20481;-69
2021/03/19 10:35:33;;;;;;;6.91;4.00;;;;;;;4.46;64.08;99686.38;2014762;80;21048;-69
2021/03/19 10:38:42;;;;;;;4.39;3.42;;;;;;;4.52;64.59;99691.69;2015346;80;20348;-70
2021/03/19 10:42:00;;;;;;;4.13;3.03;;;;;;;4.44;62.48;99700.91;2015828;80;20358;-69
2021/03/19 10:45:31;;;;;;;6.34;3.09;;;;;;;4.43;63.43;99700.03;2014668;80;20215;-69
2021/03/19 10:48:50;;;;;;;3.03;2.65;;;;;;;4.66;64.67;99694.59;2015865;80;20560;-69
2021/03/19 10:51:58;;;;;;;3.41;2.61;;;;;;;4.82;63.37;99683.81;2014917;80;20349;-69
2021/03/19 10:55:26;;;;;;;2.56;2.36;;;;;;;5.04;62.52;99695.50;2015373;80;20321;-69
2021/03/19 10:58:46;;;;;;;2.41;2.16;;;;;;;5.39;62.66;99697.13;2013933;80;20455;-69
2021/03/19 11:01:50;;;;;;;3.01;2.69;;;;;;;5.83;61.49;99701.44;2014705;80;20179;-69
2021/03/19 11:04:54;;;;;;;2.66;2.46;;;;;;;5.77;58.88;99707.34;2015431;80;20332;-69
2021/03/19 11:07:57;;;;;;;2.55;2.35;;;;;;;5.67;58.74;99714.00;2015181;80;21134;-69
2021/03/19 11:10:59;;;;;;;2.58;2.38;;;;;;;5.61;58.47;99715.59;2014760;80;20342;-69
2021/03/19 11:14:04;;;;;;;2.58;2.38;;;;;;;5.46;58.91;99717.03;2014615;80;20415;-70
2021/03/19 11:17:17;;;;;;;2.80;2.47;;;;;;;5.42;59.87;99722.94;2016528;80;20338;-69
2021/03/19 11:20:19;;;;;;;2.74;2.54;;;;;;;5.19;58.43;99730.97;2015905;80;20964;-70
2021/03/19 11:23:36;;;;;;;3.33;2.39;;;;;;;5.02;58.40;99728.03;2015277;80;20476;-69
2021/03/19 11:26:39;;;;;;;3.25;2.24;;;;;;;5.03;59.02;99729.78;2016152;80;20184;-70
2021/03/19 11:29:42;;;;;;;2.49;2.26;;;;;;;5.16;59.39;99735.22;2015411;80;20316;-69
2021/03/19 11:32:44;;;;;;;2.72;2.29;;;;;;;5.34;60.06;99739.91;2015442;80;20301;-69
2021/03/19 11:36:08;;;;;;;3.20;2.90;;;;;;;5.37;58.51;99737.41;2016013;80;20349;-69
2021/03/19 11:39:15;;;;;;;2.53;2.31;;;;;;;5.41;59.22;99734.09;2015995;80;21130;-69
2021/03/19 11:42:21;;;;;;;2.54;2.34;;;;;;;5.41;59.10;99730.66;2015681;80;21116;-70
2021/03/19 11:45:33;;;;;;;3.40;2.69;;;;;;;5.41;59.14;99740.94;2015887;80;20798;-70
2021/03/19 11:48:41;;;;;;;2.53;2.20;;;;;;;5.45;59.71;99746.19;2015637;80;20454;-69
2021/03/19 11:51:43;;;;;;;2.63;2.35;;;;;;;5.47;59.24;99746.22;2015727;80;20915;-69
2021/03/19 11:54:46;;;;;;;4.38;2.94;;;;;;;5.54;59.20;99742.06;2015792;80;20345;-69
2021/03/19 11:57:49;;;;;;;3.51;2.64;;;;;;;5.60;59.32;99740.50;2015790;80;20349;-71
2021/03/19 12:00:52;;;;;;;2.85;2.55;;;;;;;5.97;58.94;99744.72;2015538;80;20321;-72
2021/03/19 12:03:55;;;;;;;2.95;2.67;;;;;;;6.69;58.74;99743.44;2015208;80;20347;-70
2021/03/19 12:06:57;;;;;;;2.25;2.05;;;;;;;7.12;56.64;99736.38;2013926;80;20317;-71
2021/03/19 12:09:59;;;;;;;2.33;2.11;;;;;;;6.97;54.02;99737.00;2015323;80;20471;-71
2021/03/19 12:13:05;;;;;;;2.80;2.53;;;;;;;6.87;53.73;99748.91;2015882;80;20431;-71
2021/03/19 12:16:07;;;;;;;3.34;2.42;;;;;;;6.87;53.72;99742.88;2016400;80;21146;-71
2021/03/19 12:19:09;;;;;;;3.16;1.86;;;;;;;7.02;50.91;99732.81;2014222;80;20358;-71
2021/03/19 12:22:11;;;;;;;2.66;2.20;;;;;;;7.71;52.93;99737.19;2016121;80;20337;-71
2021/03/19 12:25:34;;;;;;;1.61;1.51;;;;;;;7.73;52.89;99755.31;2015183;80;21175;-69
2021/03/19 12:28:36;;;;;;;3.05;1.73;;;;;;;7.36;53.72;99754.81;2015730;80;20347;-69
2021/03/19 12:31:39;;;;;;;2.20;2.00;;;;;;;7.11;54.51;99760.47;2015581;80;20424;-70
2021/03/19 12:34:41;;;;;;;1.79;1.69;;;;;;;6.90;54.89;99755.84;2015406;80;20715;-69
2021/03/19 12:37:43;;;;;;;3.40;1.95;;;;;;;6.52;53.33;99760.34;2015293;80;20828;-69
2021/03/19 12:40:45;;;;;;;1.84;1.41;;;;;;;6.20;55.40;99750.31;2015188;80;21220;-69
2021/03/19 12:43:46;;;;;;;2.10;1.90;;;;;;;6.19;56.02;99755.44;2015719;80;20354;-69
2021/03/19 12:46:52;;;;;;;3.78;1.74;;;;;;;6.04;55.48;99751.72;2015576;80;20537;-70
2021/03/19 12:49:54;;;;;;;2.91;1.84;;;;;;;6.31;55.60;99758.25;2015276;80;20339;-70
2021/03/19 12:52:56;;;;;;;3.00;1.65;;;;;;;7.00;55.03;99756.81;2015182;80;20436;-70
2021/03/19 12:56:02;;;;;;;2.66;2.04;;;;;;;7.63;53.03;99763.78;2015216;80;20727;-69
2021/03/19 12:59:04;;;;;;;2.71;2.14;;;;;;;7.96;51.90;99760.78;2015187;80;20337;-69
2021/03/19 13:02:07;;;;;;;2.05;1.85;;;;;;;8.12;52.35;99781.66;2014748;80;20344;-69
2021/03/19 13:05:11;;;;;;;2.41;1.73;;;;;;;7.25;54.47;99793.41;2015038;80;20945;-70
2021/03/19 13:08:12;;;;;;;3.19;1.99;;;;;;;6.51;57.62;99792.16;2015010;80;20305;-71
2021/03/19 13:11:15;;;;;;;2.67;1.85;;;;;;;6.02;60.81;99781.75;2015199;80;20386;-70
2021/03/19 13:14:17;;;;;;;2.58;1.71;;;;;;;5.74;61.33;99776.81;2014857;80;20370;-70
2021/03/19 13:17:19;;;;;;;2.72;1.80;;;;;;;5.82;62.51;99774.44;2014739;80;20929;-70
2021/03/19 13:20:22;;;;;;;6.43;4.25;;;;;;;6.25;63.21;99773.59;2014794;80;21115;-70
2021/03/19 13:23:24;;;;;;;10.35;5.36;;;;;;;6.86;61.20;99767.81;2014590;80;20325;-70
2021/03/19 13:26:28;;;;;;;2.31;1.84;;;;;;;7.51;58.35;99756.72;2015250;80;20317;-70
2021/03/19 13:29:30;;;;;;;3.14;2.41;;;;;;;7.88;54.54;99748.59;2014729;80;20341;-70
2021/03/19 13:32:31;;;;;;;2.39;1.99;;;;;;;8.13;52.65;99746.31;2014372;80;20340;-71
2021/03/19 13:35:48;;;;;;;1.55;1.45;;;;;;;8.52;51.24;99751.06;2014503;80;20804;-70
2021/03/19 13:38:50;;;;;;;1.10;1.00;;;;;;;8.48;46.71;99746.72;2014118;80;21394;-70
2021/03/19 13:41:52;;;;;;;1.71;1.11;;;;;;;8.43;47.09;99748.38;2014218;80;20321;-70
2021/03/19 13:44:53;;;;;;;1.56;1.06;;;;;;;8.31;47.54;99749.09;2013700;80;21149;-70
2021/03/19 13:47:56;;;;;;;1.34;1.05;;;;;;;7.94;45.36;99757.31;2014277;80;20344;-70
2021/03/19 13:51:01;;;;;;;2.34;1.63;;;;;;;8.14;47.41;99748.91;2013791;80;20364;-70
2021/03/19 13:54:02;;;;;;;1.42;1.10;;;;;;;8.30;46.62;99768.06;2013819;80;20340;-70
2021/03/19 13:57:07;;;;;;;1.16;0.81;;;;;;;8.23;44.45;99765.38;2014367;80;20310;-69
2021/03/19 14:00:10;;;;;;;2.49;1.10;;;;;;;7.86;44.93;99773.56;2013932;80;21185;-69
2021/03/19 14:03:12;;;;;;;2.75;1.20;;;;;;;7.76;46.09;99769.16;2013950;80;21321;-70
2021/03/19 14:06:19;;;;;;;1.02;0.88;;;;;;;7.56;45.86;99778.34;2014038;80;20460;-69
2021/03/19 14:09:21;;;;;;;1.35;0.86;;;;;;;7.35;47.06;99768.56;2014305;80;20923;-70
2021/03/19 14:12:24;;;;;;;2.38;1.31;;;;;;;7.30;48.82;99777.09;2014022;80;20346;-70
2021/03/19 14:15:27;;;;;;;1.95;1.19;;;;;;;7.23;49.86;99768.41;2013629;80;20339;-71
2021/03/19 14:18:29;;;;;;;2.97;1.86;;;;;;;7.25;50.55;99784.78;2014118;80;20767;-69
2021/03/19 14:21:31;;;;;;;1.90;1.46;;;;;;;7.41;50.13;99763.50;2013908;80;20450;-70
2021/03/19 14:24:33;;;;;;;2.91;1.30;;;;;;;7.79;48.08;99765.72;2013513;80;21481;-70
2021/03/19 14:27:34;;;;;;;4.85;1.15;;;;;;;8.19;47.56;99760.19;2013872;80;20337;-71
2021/03/19 14:30:38;;;;;;;0.99;0.89;;;;;;;8.27;47.52;99757.69;2013365;80;20373;-70
2021/03/19 14:33:40;;;;;;;7.61;4.36;;;;;;;8.01;44.46;99769.44;2013292;80;20619;-70
2021/03/19 14:36:42;;;;;;;1.66;1.25;;;;;;;7.79;43.58;99786.41;2013717;80;20321;-69
2021/03/19 14:39:44;;;;;;;1.14;1.00;;;;;;;7.24;42.95;99776.16;2013439;80;20341;-69
2021/03/19 14:42:46;;;;;;;1.67;0.84;;;;;;;7.36;44.74;99788.41;2013305;80;20362;-69
2021/03/19 14:45:48;;;;;;;1.30;0.82;;;;;;;7.41;44.36;99784.16;2013534;80;20317;-70
2021/03/19 14:48:50;;;;;;;0.90;0.86;;;;;;;7.50;44.88;99794.63;2013547;80;20317;-71
2021/03/19 14:51:52;;;;;;;0.93;0.73;;;;;;;7.73;44.44;99807.00;2012955;80;20324;-72
2021/03/19 14:54:53;;;;;;;1.41;1.02;;;;;;;7.80;44.33;99798.47;2013475;80;20350;-71
2021/03/19 14:57:58;;;;;;;1.21;0.96;;;;;;;7.56;43.77;99807.66;2014236;80;20312;-73